createdAt,value
2023-04-20T00:00:35.394Z,6.22
2023-04-20T00:02:38.441Z,5.95
2023-04-20T00:04:41.317Z,7.85
2023-04-20T00:06:44.670Z,7.15
2023-04-20T00:08:47.279Z,8.07
2023-04-20T00:10:49.890Z,6.22
2023-04-20T00:12:52.498Z,5.65
2023-04-20T00:14:55.167Z,6.70
2023-04-20T00:16:59.135Z,7.97
2023-04-20T00:19:02.090Z,7.97
2023-04-20T00:21:04.988Z,7.45
2023-04-20T00:23:08.161Z,8.13
2023-04-20T00:25:11.304Z,8.00
2023-04-20T00:27:13.878Z,7.50
2023-04-20T00:29:16.668Z,6.78
2023-04-20T00:31:19.728Z,6.22
2023-04-20T00:33:23.855Z,6.72
2023-04-20T00:35:26.556Z,6.97
2023-04-20T00:37:29.272Z,6.47
2023-04-20T00:39:31.968Z,6.03
2023-04-20T00:41:34.688Z,7.57
2023-04-20T00:43:37.546Z,6.97
2023-04-20T00:45:40.465Z,7.50
2023-04-20T00:47:43.089Z,9.52
2023-04-20T00:49:47.144Z,8.40
2023-04-20T00:51:49.730Z,12.05
2023-04-20T00:53:52.453Z,5.28
2023-04-20T00:55:55.761Z,7.60
2023-04-20T00:57:58.469Z,8.38
2023-04-20T01:00:01.385Z,6.85
2023-04-20T01:02:04.271Z,7.25
2023-04-20T01:04:07.870Z,7.05
2023-04-20T01:06:12.863Z,7.25
2023-04-20T01:08:15.664Z,6.70
2023-04-20T01:10:18.391Z,8.20
2023-04-20T01:12:21.035Z,8.80
2023-04-20T01:14:23.692Z,6.05
2023-04-20T01:16:26.484Z,8.70
2023-04-20T01:18:29.165Z,6.07
2023-04-20T01:20:33.781Z,8.38
2023-04-20T01:22:45.026Z,7.03
2023-04-20T01:24:48.177Z,8.85
2023-04-20T01:26:50.801Z,7.40
2023-04-20T01:28:53.615Z,6.30
2023-04-20T01:30:56.180Z,6.60
2023-04-20T01:32:58.802Z,9.90
2023-04-20T01:35:01.927Z,8.43
2023-04-20T01:37:08.030Z,7.60
2023-04-20T01:39:14.965Z,6.18
2023-04-20T01:41:17.693Z,8.35
2023-04-20T01:43:21.110Z,7.65
2023-04-20T01:45:23.748Z,6.80
2023-04-20T01:47:26.529Z,7.57
2023-04-20T01:49:29.223Z,7.53
2023-04-20T01:51:32.948Z,8.50
2023-04-20T01:53:35.564Z,9.23
2023-04-20T01:55:39.866Z,10.18
2023-04-20T01:57:44.537Z,8.77
2023-04-20T01:59:47.367Z,7.97
2023-04-20T02:01:50.082Z,6.90
2023-04-20T02:03:53.012Z,7.45
2023-04-20T02:05:55.895Z,7.40
2023-04-20T02:07:58.660Z,8.32
2023-04-20T02:10:01.336Z,8.18
2023-04-20T02:12:06.104Z,8.27
2023-04-20T02:14:08.907Z,7.03
2023-04-20T02:16:11.780Z,9.40
2023-04-20T02:18:16.093Z,8.45
2023-04-20T02:20:19.784Z,9.27
2023-04-20T02:22:22.394Z,7.50
2023-04-20T02:24:25.136Z,7.30
2023-04-20T02:26:27.948Z,8.65
2023-04-20T02:28:31.982Z,8.85
2023-04-20T02:30:34.667Z,7.97
2023-04-20T02:32:37.407Z,7.80
2023-04-20T02:34:40.106Z,8.27
2023-04-20T02:36:42.749Z,9.35
2023-04-20T02:38:45.470Z,9.00
2023-04-20T02:40:48.153Z,9.10
2023-04-20T02:42:50.811Z,8.73
2023-04-20T02:44:54.856Z,9.13
2023-04-20T02:46:57.574Z,8.70
2023-04-20T02:49:00.729Z,11.50
2023-04-20T02:51:03.423Z,10.20
2023-04-20T02:53:06.238Z,7.38
2023-04-20T02:55:09.462Z,8.48
2023-04-20T02:57:12.244Z,8.05
2023-04-20T02:59:15.060Z,7.95
2023-04-20T03:01:19.258Z,8.90
2023-04-20T03:03:22.050Z,9.60
2023-04-20T03:05:25.043Z,7.53
2023-04-20T03:07:27.773Z,7.97
2023-04-20T03:09:30.558Z,9.05
2023-04-20T03:11:33.220Z,9.40
2023-04-20T03:13:36.211Z,11.00
2023-04-20T03:15:38.962Z,8.82
2023-04-20T03:17:43.186Z,7.32
2023-04-20T03:19:46.465Z,8.73
2023-04-20T03:21:49.113Z,8.63
2023-04-20T03:23:51.690Z,12.32
2023-04-20T03:25:54.632Z,10.55
2023-04-20T03:27:57.272Z,10.65
2023-04-20T03:30:00.373Z,8.60
2023-04-20T03:32:03.110Z,10.65
2023-04-20T03:34:07.226Z,10.82
2023-04-20T03:36:10.307Z,10.00
2023-04-20T03:38:12.929Z,8.82
2023-04-20T03:40:15.765Z,8.18
2023-04-20T03:42:19.534Z,9.43
2023-04-20T03:44:22.242Z,10.45
2023-04-20T03:46:25.087Z,9.63
2023-04-20T03:48:27.919Z,9.57
2023-04-20T03:50:32.140Z,11.82
2023-04-20T03:52:34.947Z,8.00
2023-04-20T03:54:37.589Z,8.32
2023-04-20T03:56:40.365Z,8.43
2023-04-20T03:58:43.024Z,8.98
2023-04-20T04:00:45.674Z,8.57
2023-04-20T04:02:49.298Z,9.10
2023-04-20T04:04:52.333Z,9.52
2023-04-20T04:06:56.402Z,9.98
2023-04-20T04:08:59.159Z,10.13
2023-04-20T04:11:01.790Z,10.30
2023-04-20T04:13:04.404Z,11.88
2023-04-20T04:15:08.476Z,8.77
2023-04-20T04:17:11.190Z,9.95
2023-04-20T04:19:13.837Z,9.75
2023-04-20T04:21:16.502Z,8.35
2023-04-20T04:23:20.653Z,8.98
2023-04-20T04:25:23.551Z,8.13
2023-04-20T04:27:29.732Z,10.65
2023-04-20T04:29:38.448Z,9.93
2023-04-20T04:31:44.773Z,8.32
2023-04-20T04:33:48.289Z,9.32
2023-04-20T04:35:50.987Z,10.63
2023-04-20T04:37:54.068Z,10.10
2023-04-20T04:39:58.497Z,11.45
2023-04-20T04:42:02.529Z,11.65
2023-04-20T04:44:07.037Z,10.68
2023-04-20T04:46:10.831Z,13.00
2023-04-20T04:48:14.166Z,9.52
2023-04-20T04:50:17.140Z,9.05
2023-04-20T04:52:19.789Z,9.68
2023-04-20T04:54:22.410Z,8.70
2023-04-20T04:56:26.462Z,9.43
2023-04-20T04:58:29.182Z,12.15
2023-04-20T05:00:32.496Z,9.07
2023-04-20T05:02:35.388Z,9.15
2023-04-20T05:04:38.337Z,9.13
2023-04-20T05:06:41.039Z,8.90
2023-04-20T05:08:44.357Z,7.78
2023-04-20T05:10:47.212Z,10.65
2023-04-20T05:12:52.408Z,9.45
2023-04-20T05:14:55.051Z,10.80
2023-04-20T05:16:57.781Z,8.82
2023-04-20T05:19:00.486Z,8.23
2023-04-20T05:21:03.270Z,10.25
2023-04-20T05:23:07.133Z,11.73
2023-04-20T05:25:12.616Z,7.75
2023-04-20T05:27:16.460Z,8.38
2023-04-20T05:29:21.000Z,9.98
2023-04-20T05:31:23.794Z,8.52
2023-04-20T05:33:27.673Z,8.85
2023-04-20T05:35:30.764Z,9.73
2023-04-20T05:37:34.157Z,10.07
2023-04-20T05:39:36.794Z,9.48
2023-04-20T05:41:40.873Z,8.57
2023-04-20T05:43:43.463Z,9.80
2023-04-20T05:45:47.673Z,9.55
2023-04-20T05:47:54.342Z,11.98
2023-04-20T05:49:57.103Z,8.82
2023-04-20T05:51:59.852Z,9.90
2023-04-20T05:54:02.610Z,9.48
2023-04-20T05:56:06.141Z,8.57
2023-04-20T05:58:08.804Z,8.82
2023-04-20T06:00:13.448Z,12.48
2023-04-20T06:02:17.506Z,12.18
2023-04-20T06:04:20.540Z,11.40
2023-04-20T06:06:23.550Z,10.48
2023-04-20T06:08:26.320Z,9.20
2023-04-20T06:10:32.274Z,13.18
2023-04-20T06:12:34.971Z,10.88
2023-04-20T06:14:37.676Z,9.85
2023-04-20T06:16:40.331Z,10.35
2023-04-20T06:18:44.314Z,10.95
2023-04-20T06:20:47.088Z,10.80
2023-04-20T06:22:50.086Z,13.20
2023-04-20T06:24:52.695Z,10.15
2023-04-20T06:26:55.356Z,9.07
2023-04-20T06:28:57.968Z,11.63
2023-04-20T06:31:00.657Z,9.25
2023-04-20T06:33:04.010Z,12.05
2023-04-20T06:35:09.325Z,8.55
2023-04-20T06:37:12.022Z,9.93
2023-04-20T06:39:14.606Z,12.27
2023-04-20T06:41:17.184Z,9.18
2023-04-20T06:43:19.835Z,11.15
2023-04-20T06:45:22.540Z,8.40
2023-04-20T06:47:31.338Z,9.30
2023-04-20T06:49:34.150Z,8.60
2023-04-20T06:51:38.206Z,10.95
2023-04-20T06:53:40.866Z,9.27
2023-04-20T06:55:43.694Z,10.43
2023-04-20T06:57:46.400Z,10.35
2023-04-20T06:59:49.024Z,10.75
2023-04-20T07:01:52.005Z,9.40
2023-04-20T07:03:55.191Z,8.80
2023-04-20T07:05:58.152Z,9.35
2023-04-20T07:08:02.281Z,11.27
2023-04-20T07:10:05.597Z,8.30
2023-04-20T07:12:08.341Z,8.13
2023-04-20T07:14:10.976Z,9.73
2023-04-20T07:16:14.369Z,11.13
2023-04-20T07:18:16.990Z,9.43
2023-04-20T07:20:19.677Z,9.30
2023-04-20T07:22:22.336Z,9.38
2023-04-20T07:24:26.308Z,10.90
2023-04-20T07:26:28.946Z,10.35
2023-04-20T07:28:31.655Z,11.48
2023-04-20T07:30:34.378Z,13.00
2023-04-20T07:32:38.353Z,9.10
2023-04-20T07:34:41.177Z,9.30
2023-04-20T07:36:44.166Z,11.10
2023-04-20T07:38:46.974Z,10.15
2023-04-20T07:40:51.049Z,9.63
2023-04-20T07:42:53.711Z,16.60
2023-04-20T07:44:56.358Z,10.07
2023-04-20T07:46:58.973Z,10.90
2023-04-20T07:49:01.636Z,9.38
2023-04-20T07:51:04.746Z,10.15
2023-04-20T07:53:07.347Z,9.90
2023-04-20T07:55:11.957Z,11.90
2023-04-20T07:57:16.663Z,11.25
2023-04-20T07:59:19.494Z,10.45
2023-04-20T08:01:25.106Z,12.70
2023-04-20T08:03:29.095Z,10.60
2023-04-20T08:05:32.306Z,12.60
2023-04-20T08:07:35.237Z,14.45
2023-04-20T08:09:38.222Z,11.77
2023-04-20T08:11:41.128Z,13.43
2023-04-20T08:13:45.302Z,14.15
2023-04-20T08:15:48.048Z,12.15
2023-04-20T08:17:51.123Z,13.02
2023-04-20T08:19:53.777Z,14.80
2023-04-20T08:21:56.790Z,12.48
2023-04-20T08:23:59.464Z,13.95
2023-04-20T08:26:02.124Z,13.38
2023-04-20T08:28:08.704Z,12.98
2023-04-20T08:30:13.711Z,13.50
2023-04-20T08:32:18.518Z,13.38
2023-04-20T08:34:21.497Z,12.98
2023-04-20T08:36:24.595Z,11.88
2023-04-20T08:38:33.817Z,13.52
2023-04-20T08:40:37.653Z,13.82
2023-04-20T08:42:40.407Z,12.73
2023-04-20T08:44:44.448Z,12.02
2023-04-20T08:46:50.161Z,11.32
2023-04-20T08:48:55.770Z,12.73
2023-04-20T08:50:58.669Z,13.90
2023-04-20T08:53:03.322Z,11.85
2023-04-20T08:55:07.532Z,14.63
2023-04-20T08:57:10.278Z,11.70
2023-04-20T08:59:14.408Z,11.88
2023-04-20T09:01:22.709Z,12.50
2023-04-20T09:03:37.019Z,13.60
2023-04-20T09:05:39.974Z,13.25
2023-04-20T09:07:52.681Z,11.18
2023-04-20T09:09:56.211Z,11.02
2023-04-20T09:12:03.497Z,13.30
2023-04-20T09:14:09.968Z,14.77
2023-04-20T09:16:13.598Z,12.63
2023-04-20T09:18:17.494Z,12.40
2023-04-20T09:20:30.217Z,13.48
2023-04-20T09:22:34.411Z,13.25
2023-04-20T09:24:38.643Z,12.57
2023-04-20T09:26:41.384Z,11.43
2023-04-20T09:28:44.099Z,10.65
2023-04-20T09:30:48.584Z,11.20
2023-04-20T09:33:02.183Z,14.15
2023-04-20T09:35:06.743Z,12.10
2023-04-20T09:37:11.470Z,12.60
2023-04-20T09:39:17.351Z,11.80
2023-04-20T09:41:20.012Z,14.27
2023-04-20T09:43:25.576Z,13.68
2023-04-20T09:45:30.031Z,11.23
2023-04-20T09:47:36.850Z,12.35
2023-04-20T09:51:45.175Z,12.68
2023-04-20T09:53:51.676Z,12.80
2023-04-20T09:55:56.181Z,12.32
2023-04-20T09:57:59.058Z,13.55
2023-04-20T10:00:04.805Z,12.90
2023-04-20T10:02:09.631Z,13.48
2023-04-20T10:04:14.440Z,15.68
2023-04-20T10:06:24.485Z,13.15
2023-04-20T10:08:27.294Z,12.93
2023-04-20T10:10:31.320Z,11.40
2023-04-20T10:12:36.914Z,13.27
2023-04-20T10:14:39.604Z,15.43
2023-04-20T10:16:43.098Z,12.50
2023-04-20T10:18:57.412Z,14.38
2023-04-20T10:21:09.404Z,12.38
2023-04-20T10:23:14.363Z,13.43
2023-04-20T10:25:19.347Z,11.60
2023-04-20T10:27:23.551Z,13.85
2023-04-20T10:29:26.936Z,11.88
2023-04-20T10:31:37.204Z,10.98
2023-04-20T10:33:53.107Z,13.38
2023-04-20T10:35:58.905Z,11.75
2023-04-20T10:38:01.679Z,11.80
2023-04-20T10:40:07.638Z,13.55
2023-04-20T10:42:10.712Z,13.15
2023-04-20T10:44:14.988Z,13.27
2023-04-20T10:46:18.845Z,16.38
2023-04-20T10:48:21.785Z,16.65
2023-04-20T10:50:27.767Z,12.02
2023-04-20T10:52:34.494Z,13.30
2023-04-20T10:56:41.764Z,17.50
2023-04-20T10:58:44.389Z,14.90
2023-04-20T11:00:58.420Z,13.73
2023-04-20T11:03:01.162Z,15.57
2023-04-20T11:05:12.563Z,12.75
2023-04-20T11:07:15.298Z,13.70
2023-04-20T11:09:20.306Z,16.92
2023-04-20T11:11:27.442Z,13.65
2023-04-20T11:13:30.776Z,13.20
2023-04-20T11:15:33.800Z,13.95
2023-04-20T11:17:39.721Z,12.02
2023-04-20T11:19:42.466Z,11.38
2023-04-20T11:21:45.189Z,11.60
2023-04-20T11:23:48.207Z,12.52
2023-04-20T11:25:53.464Z,12.95
2023-04-20T11:28:06.387Z,12.85
2023-04-20T11:30:10.066Z,12.57
2023-04-20T11:32:12.919Z,13.07
2023-04-20T11:34:19.689Z,11.60
2023-04-20T11:36:22.988Z,11.55
2023-04-20T11:38:30.975Z,11.75
2023-04-20T11:40:34.070Z,11.38
2023-04-20T11:42:36.785Z,12.23
2023-04-20T11:44:41.263Z,12.98
2023-04-20T11:46:44.807Z,13.02
2023-04-20T11:48:49.024Z,16.05
2023-04-20T11:50:53.015Z,14.40
2023-04-20T11:52:55.630Z,14.32
2023-04-20T11:54:58.294Z,12.90
2023-04-20T11:57:01.190Z,13.57
2023-04-20T11:59:04.043Z,14.90
2023-04-20T12:01:06.767Z,16.27
2023-04-20T12:03:09.580Z,12.75
2023-04-20T12:05:12.618Z,17.48
2023-04-20T12:07:16.955Z,13.32
2023-04-20T12:09:19.664Z,12.85
2023-04-20T12:11:22.591Z,13.65
2023-04-20T12:13:25.567Z,14.82
2023-04-20T12:15:28.408Z,13.35
2023-04-20T12:17:31.124Z,13.88
2023-04-20T12:19:34.107Z,13.52
2023-04-20T12:21:36.901Z,13.30
2023-04-20T12:23:40.932Z,14.25
2023-04-20T12:25:44.057Z,14.73
2023-04-20T12:27:48.145Z,12.45
2023-04-20T12:29:52.609Z,12.63
2023-04-20T12:31:55.700Z,12.02
2023-04-20T12:33:58.423Z,11.57
2023-04-20T12:36:01.113Z,12.10
2023-04-20T12:38:03.835Z,13.02
2023-04-20T12:40:10.122Z,13.38
2023-04-20T12:42:12.818Z,13.75
2023-04-20T12:44:15.427Z,13.68
2023-04-20T12:46:18.359Z,10.07
2023-04-20T12:48:21.089Z,14.93
2023-04-20T12:50:23.764Z,12.68
2023-04-20T12:52:26.382Z,13.40
2023-04-20T12:54:29.001Z,12.82
2023-04-20T12:56:33.040Z,11.05
2023-04-20T12:58:35.833Z,12.18
2023-04-20T13:00:38.543Z,12.20
2023-04-20T13:02:41.683Z,12.68
2023-04-20T13:04:44.526Z,11.88
2023-04-20T13:06:47.163Z,10.98
2023-04-20T13:08:50.434Z,12.32
2023-04-20T13:10:53.320Z,11.88
2023-04-20T13:12:57.864Z,9.35
2023-04-20T13:15:00.632Z,11.43
2023-04-20T13:17:03.262Z,12.85
2023-04-20T13:19:05.917Z,10.95
2023-04-20T13:21:09.228Z,10.57
2023-04-20T13:23:11.933Z,12.25
2023-04-20T13:25:14.609Z,9.65
2023-04-20T13:27:17.281Z,9.35
2023-04-20T13:29:21.224Z,9.38
2023-04-20T13:31:24.178Z,14.52
2023-04-20T13:33:26.936Z,10.93
2023-04-20T13:35:29.708Z,9.45
2023-04-20T13:37:33.195Z,9.80
2023-04-20T13:39:36.047Z,9.65
2023-04-20T13:41:39.570Z,12.80
2023-04-20T13:43:42.253Z,11.80
2023-04-20T13:45:46.501Z,10.35
2023-04-20T13:47:49.280Z,10.93
2023-04-20T13:49:51.998Z,9.60
2023-04-20T13:51:55.343Z,10.52
2023-04-20T13:53:57.962Z,13.18
2023-04-20T13:56:00.948Z,10.57
2023-04-20T13:58:03.642Z,11.30
2023-04-20T14:00:07.915Z,8.50
2023-04-20T14:02:12.044Z,10.75
2023-04-20T14:04:16.874Z,10.40
2023-04-20T14:06:19.805Z,10.80
2023-04-20T14:08:23.386Z,9.50
2023-04-20T14:10:26.165Z,9.48
2023-04-20T14:12:28.983Z,11.73
2023-04-20T14:14:31.724Z,10.25
2023-04-20T14:16:34.461Z,10.00
2023-04-20T14:18:39.137Z,12.40
2023-04-20T14:20:41.839Z,12.32
2023-04-20T14:22:44.557Z,12.30
2023-04-20T14:24:47.858Z,12.07
2023-04-20T14:26:52.305Z,9.60
2023-04-20T14:28:55.373Z,10.70
2023-04-20T14:30:58.100Z,12.23
2023-04-20T14:33:01.523Z,10.77
2023-04-20T14:35:06.214Z,12.25
2023-04-20T14:37:09.721Z,10.10
2023-04-20T14:39:12.428Z,11.57
2023-04-20T14:41:16.174Z,11.15
2023-04-20T14:43:19.017Z,10.25
2023-04-20T14:45:21.984Z,13.50
2023-04-20T14:47:24.618Z,11.32
2023-04-20T14:49:27.257Z,12.98
2023-04-20T14:51:32.295Z,10.95
2023-04-20T14:53:34.957Z,11.48
2023-04-20T14:55:37.691Z,10.63
2023-04-20T14:57:40.512Z,11.30
2023-04-20T14:59:43.169Z,12.55
2023-04-20T15:01:55.308Z,12.25
2023-04-20T15:04:04.433Z,13.50
2023-04-20T15:06:07.933Z,11.68
2023-04-20T15:08:12.253Z,12.35
2023-04-20T15:10:14.924Z,12.68
2023-04-20T15:12:17.566Z,11.70
2023-04-20T15:14:21.175Z,13.30
2023-04-20T15:16:24.131Z,14.63
2023-04-20T15:18:26.820Z,13.35
2023-04-20T15:20:29.441Z,11.68
2023-04-20T15:22:32.153Z,14.45
2023-04-20T15:24:36.149Z,14.10
2023-04-20T15:26:38.879Z,12.48
2023-04-20T15:28:41.574Z,13.13
2023-04-20T15:30:44.354Z,14.35
2023-04-20T15:32:47.089Z,14.45
2023-04-20T15:34:50.198Z,14.77
2023-04-20T15:36:52.898Z,13.57
2023-04-20T15:38:57.704Z,14.25
2023-04-20T15:41:02.119Z,12.35
2023-04-20T15:43:04.856Z,13.95
2023-04-20T15:45:08.641Z,15.00
2023-04-20T15:47:11.774Z,14.23
2023-04-20T15:49:14.391Z,12.95
2023-04-20T15:51:17.560Z,13.93
2023-04-20T15:53:21.110Z,13.13
2023-04-20T15:55:23.889Z,15.20
2023-04-20T15:57:27.966Z,16.70
2023-04-20T15:59:30.920Z,14.73
2023-04-20T16:01:34.567Z,17.25
2023-04-20T16:03:39.125Z,16.90
2023-04-20T16:05:41.974Z,15.60
2023-04-20T16:07:44.636Z,16.20
2023-04-20T16:09:47.308Z,16.08
2023-04-20T16:11:49.994Z,16.67
2023-04-20T16:13:56.417Z,17.23
2023-04-20T16:15:59.173Z,18.27
2023-04-20T16:18:04.757Z,17.15
2023-04-20T16:20:09.154Z,18.58
2023-04-20T16:22:12.335Z,21.77
2023-04-20T16:24:15.077Z,19.60
2023-04-20T16:26:17.876Z,21.83
2023-04-20T16:28:20.597Z,18.98
2023-04-20T16:30:24.682Z,18.65
2023-04-20T16:32:27.664Z,17.30
2023-04-20T16:34:31.505Z,18.02
2023-04-20T16:36:34.145Z,15.30
2023-04-20T16:38:36.823Z,16.88
2023-04-20T16:40:39.470Z,15.18
2023-04-20T16:42:42.073Z,17.38
2023-04-20T16:44:44.810Z,17.42
2023-04-20T16:46:51.334Z,17.83
2023-04-20T16:48:54.589Z,16.05
2023-04-20T16:50:57.220Z,14.90
2023-04-20T16:52:59.932Z,13.70
2023-04-20T16:55:02.675Z,14.85
2023-04-20T16:57:05.768Z,16.13
2023-04-20T16:59:08.549Z,17.45
2023-04-20T17:01:11.275Z,16.08
2023-04-20T17:03:15.725Z,18.35
2023-04-20T17:05:18.625Z,18.23
2023-04-20T17:07:21.324Z,16.95
2023-04-20T17:09:24.120Z,18.60
2023-04-20T17:11:26.737Z,17.83
2023-04-20T17:13:29.402Z,22.05
2023-04-20T17:15:32.267Z,16.90
2023-04-20T17:17:35.066Z,18.42
2023-04-20T17:19:40.562Z,18.25
2023-04-20T17:21:45.110Z,17.77
2023-04-20T17:23:47.946Z,15.18
2023-04-20T17:25:51.360Z,15.63
2023-04-20T17:27:54.072Z,15.70
2023-04-20T17:29:57.628Z,15.25
2023-04-20T17:32:00.371Z,15.63
2023-04-20T17:34:03.333Z,14.65
2023-04-20T17:36:07.711Z,14.07
2023-04-20T17:38:10.429Z,16.75
2023-04-20T17:40:13.475Z,13.82
2023-04-20T17:42:16.223Z,14.90
2023-04-20T17:44:19.069Z,15.38
2023-04-20T17:46:21.956Z,14.38
2023-04-20T17:48:24.620Z,15.27
2023-04-20T17:50:27.316Z,13.95
2023-04-20T17:52:31.352Z,14.95
2023-04-20T17:54:34.827Z,14.27
2023-04-20T17:56:37.563Z,14.35
2023-04-20T17:58:40.215Z,14.25
2023-04-20T18:00:43.064Z,13.35
2023-04-20T18:02:45.979Z,12.40
2023-04-20T18:04:48.865Z,13.25
2023-04-20T18:06:52.442Z,15.95
2023-04-20T18:08:57.109Z,14.88
2023-04-20T18:10:59.713Z,16.30
2023-04-20T18:13:02.413Z,14.85
2023-04-20T18:15:07.612Z,15.50
2023-04-20T18:17:11.082Z,14.02
2023-04-20T18:19:13.815Z,16.80
2023-04-20T18:21:16.555Z,17.17
2023-04-20T18:23:19.251Z,15.95
2023-04-20T18:25:23.324Z,15.55
2023-04-20T18:27:26.122Z,16.88
2023-04-20T18:29:29.826Z,14.60
2023-04-20T18:31:32.524Z,14.38
2023-04-20T18:33:35.760Z,16.17
2023-04-20T18:35:38.424Z,17.35
2023-04-20T18:37:41.117Z,15.15
2023-04-20T18:39:43.828Z,15.43
2023-04-20T18:41:47.969Z,17.33
2023-04-20T18:43:53.301Z,18.52
2023-04-20T18:45:56.083Z,19.25
2023-04-20T18:47:59.035Z,15.65
2023-04-20T18:50:01.811Z,17.13
2023-04-20T18:52:04.651Z,17.08
2023-04-20T18:54:07.480Z,18.98
2023-04-20T18:56:10.458Z,16.95
2023-04-20T18:58:14.589Z,15.48
2023-04-20T19:00:17.650Z,16.77
2023-04-20T19:02:20.472Z,17.08
2023-04-20T19:04:23.576Z,15.48
2023-04-20T19:06:27.958Z,15.52
2023-04-20T19:08:31.121Z,16.90
2023-04-20T19:10:33.776Z,18.80
2023-04-20T19:12:38.435Z,16.10
2023-04-20T19:14:42.466Z,16.95
2023-04-20T19:16:45.106Z,17.80
2023-04-20T19:18:49.238Z,18.65
2023-04-20T19:20:52.155Z,17.13
2023-04-20T19:22:58.014Z,18.83
2023-04-20T19:25:00.742Z,16.52
2023-04-20T19:27:03.397Z,18.77
2023-04-20T19:29:06.141Z,18.05
2023-04-20T19:31:11.023Z,25.48
2023-04-20T19:33:13.884Z,19.17
2023-04-20T19:35:16.624Z,23.10
2023-04-20T19:37:19.221Z,21.60
2023-04-20T19:39:22.003Z,26.00
2023-04-20T19:41:25.948Z,29.33
2023-04-20T19:43:28.643Z,22.65
2023-04-20T19:45:31.383Z,20.20
2023-04-20T19:47:35.686Z,19.92
2023-04-20T19:49:38.324Z,19.15
2023-04-20T19:51:41.020Z,20.83
2023-04-20T19:53:43.729Z,21.20
2023-04-20T19:55:46.501Z,23.63
2023-04-20T19:57:49.209Z,22.27
2023-04-20T19:59:52.030Z,22.92
2023-04-20T20:01:54.776Z,20.27
2023-04-20T20:03:59.010Z,21.10
2023-04-20T20:06:02.163Z,19.45
2023-04-20T20:08:04.939Z,21.42
2023-04-20T20:10:08.311Z,22.73
2023-04-20T20:12:12.315Z,19.60
2023-04-20T20:14:15.179Z,20.55
2023-04-20T20:16:18.243Z,22.33
2023-04-20T20:18:21.447Z,21.98
2023-04-20T20:20:26.911Z,22.08
2023-04-20T20:22:29.622Z,22.38
2023-04-20T20:24:32.311Z,22.05
2023-04-20T20:26:34.944Z,22.98
2023-04-20T20:28:37.622Z,19.80
2023-04-20T20:30:41.535Z,21.08
2023-04-20T20:32:44.246Z,22.70
2023-04-20T20:34:47.172Z,21.23
2023-04-20T20:36:51.314Z,20.77
2023-04-20T20:38:53.984Z,21.10
2023-04-20T20:40:56.635Z,20.02
2023-04-20T20:42:59.256Z,19.52
2023-04-20T20:45:02.008Z,21.05
2023-04-20T20:47:05.915Z,19.73
2023-04-20T20:49:08.836Z,17.92
2023-04-20T20:51:12.053Z,17.05
2023-04-20T20:53:17.517Z,19.27
2023-04-20T20:55:20.353Z,17.73
2023-04-20T20:57:23.036Z,15.23
2023-04-20T20:59:25.764Z,15.32
2023-04-20T21:01:28.475Z,17.05
2023-04-20T21:03:31.808Z,17.85
2023-04-20T21:05:35.850Z,17.40
2023-04-20T21:07:40.104Z,16.73
2023-04-20T21:09:44.190Z,16.17
2023-04-20T21:11:46.867Z,16.45
2023-04-20T21:13:49.543Z,19.35
2023-04-20T21:15:52.148Z,15.82
2023-04-20T21:17:54.842Z,14.35
2023-04-20T21:19:57.755Z,15.45
2023-04-20T21:22:00.517Z,17.17
2023-04-20T21:24:03.196Z,16.75
2023-04-20T21:26:07.216Z,17.52
2023-04-20T21:28:09.841Z,18.02
2023-04-20T21:30:13.510Z,18.35
2023-04-20T21:32:16.293Z,17.73
2023-04-20T21:34:18.990Z,17.10
2023-04-20T21:36:21.597Z,15.98
2023-04-20T21:38:24.242Z,16.27
2023-04-20T21:40:26.924Z,14.85
2023-04-20T21:42:30.889Z,15.20
2023-04-20T21:44:33.604Z,13.60
2023-04-20T21:46:36.376Z,14.40
2023-04-20T21:48:39.125Z,15.65
2023-04-20T21:50:41.735Z,14.90
2023-04-20T21:52:44.374Z,15.98
2023-04-20T21:54:47.008Z,15.50
2023-04-20T21:56:49.663Z,17.27
2023-04-20T21:58:53.640Z,15.35
2023-04-20T22:00:56.278Z,16.40
2023-04-20T22:02:59.122Z,15.93
2023-04-20T22:05:01.885Z,17.60
2023-04-20T22:07:04.685Z,17.90
2023-04-20T22:09:07.996Z,18.15
2023-04-20T22:11:10.717Z,16.42
2023-04-20T22:13:14.036Z,16.88
2023-04-20T22:15:18.589Z,16.92
2023-04-20T22:17:21.736Z,19.50
2023-04-20T22:19:24.497Z,16.98
2023-04-20T22:21:27.218Z,19.25
2023-04-20T22:23:29.922Z,18.27
2023-04-20T22:25:32.674Z,17.83
2023-04-20T22:27:36.817Z,17.33
2023-04-20T22:29:39.475Z,18.65
2023-04-20T22:31:43.667Z,18.48
2023-04-20T22:33:46.398Z,18.75
2023-04-20T22:35:49.078Z,18.30
2023-04-20T22:37:51.726Z,20.85
2023-04-20T22:39:54.425Z,16.98
2023-04-20T22:41:57.081Z,17.60
2023-04-20T22:43:59.821Z,18.85
2023-04-20T22:46:02.489Z,17.25
2023-04-20T22:48:07.054Z,14.93
2023-04-20T22:50:11.961Z,16.85
2023-04-20T22:52:14.634Z,15.38
2023-04-20T22:54:17.323Z,15.60
2023-04-20T22:56:19.943Z,16.58
2023-04-20T22:58:22.540Z,12.95
2023-04-20T23:00:25.176Z,17.48
2023-04-20T23:02:27.954Z,16.35
2023-04-20T23:04:32.449Z,15.10
2023-04-20T23:06:35.482Z,18.75
2023-04-20T23:08:39.665Z,17.95
2023-04-20T23:10:42.277Z,15.85
2023-04-20T23:12:46.794Z,19.55
2023-04-20T23:14:50.620Z,17.15
2023-04-20T23:16:53.451Z,17.42
2023-04-20T23:18:56.162Z,17.02
2023-04-20T23:21:00.217Z,16.13
2023-04-20T23:23:02.866Z,17.85
2023-04-20T23:25:06.128Z,14.57
2023-04-20T23:27:08.789Z,16.85
2023-04-20T23:29:11.454Z,18.75
2023-04-20T23:31:14.189Z,18.48
2023-04-20T23:33:16.870Z,15.88
2023-04-20T23:35:20.331Z,17.17
2023-04-20T23:37:24.390Z,18.50
2023-04-20T23:39:27.015Z,18.75
2023-04-20T23:41:29.641Z,17.48
2023-04-20T23:43:32.257Z,19.92
2023-04-20T23:45:34.957Z,17.98
2023-04-20T23:47:37.700Z,16.30
2023-04-20T23:49:40.371Z,18.38
2023-04-20T23:51:43.065Z,17.98
2023-04-20T23:53:47.089Z,17.35
2023-04-20T23:55:52.002Z,20.05
2023-04-20T23:57:54.629Z,18.15
2023-04-20T23:59:57.254Z,18.30
